sensor_id;sensor_type;location;lat;lon;timestamp;P1;durP1;ratioP1;P2;durP2;ratioP2
36391;SDS011;22639;42.690;23.356;2023-11-19T00:02:18;1.73;;;1.63;;
36391;SDS011;22639;42.690;23.356;2023-11-19T00:04:44;1.77;;;1.50;;
36391;SDS011;22639;42.690;23.356;2023-11-19T00:07:09;1.30;;;1.20;;
36391;SDS011;22639;42.690;23.356;2023-11-19T00:09:37;3.53;;;1.63;;
36391;SDS011;22639;42.690;23.356;2023-11-19T00:12:06;3.13;;;1.97;;
36391;SDS011;22639;42.690;23.356;2023-11-19T00:14:32;2.83;;;2.43;;
36391;SDS011;22639;42.690;23.356;2023-11-19T00:17:00;3.07;;;1.80;;
36391;SDS011;22639;42.690;23.356;2023-11-19T00:19:26;1.93;;;1.73;;
36391;SDS011;22639;42.690;23.356;2023-11-19T00:21:51;1.90;;;1.70;;
36391;SDS011;22639;42.690;23.356;2023-11-19T00:24:17;2.70;;;1.60;;
36391;SDS011;22639;42.690;23.356;2023-11-19T00:26:43;1.90;;;1.70;;
36391;SDS011;22639;42.690;23.356;2023-11-19T00:29:09;1.87;;;1.57;;
36391;SDS011;22639;42.690;23.356;2023-11-19T00:31:34;1.63;;;1.30;;
36391;SDS011;22639;42.690;23.356;2023-11-19T00:34:00;1.67;;;1.57;;
36391;SDS011;22639;42.690;23.356;2023-11-19T00:36:26;1.43;;;1.30;;
36391;SDS011;22639;42.690;23.356;2023-11-19T00:38:52;2.20;;;1.80;;
36391;SDS011;22639;42.690;23.356;2023-11-19T00:41:18;1.90;;;1.13;;
36391;SDS011;22639;42.690;23.356;2023-11-19T00:43:44;2.03;;;1.83;;
36391;SDS011;22639;42.690;23.356;2023-11-19T00:46:10;2.97;;;1.77;;
36391;SDS011;22639;42.690;23.356;2023-11-19T00:48:39;2.47;;;2.13;;
36391;SDS011;22639;42.690;23.356;2023-11-19T00:51:05;3.07;;;1.63;;
36391;SDS011;22639;42.690;23.356;2023-11-19T00:53:31;1.23;;;0.73;;
36391;SDS011;22639;42.690;23.356;2023-11-19T00:55:57;2.63;;;1.93;;
36391;SDS011;22639;42.690;23.356;2023-11-19T00:58:23;2.53;;;1.53;;
36391;SDS011;22639;42.690;23.356;2023-11-19T01:00:48;1.23;;;1.13;;
36391;SDS011;22639;42.690;23.356;2023-11-19T01:03:14;2.03;;;1.63;;
36391;SDS011;22639;42.690;23.356;2023-11-19T01:05:40;1.60;;;1.50;;
36391;SDS011;22639;42.690;23.356;2023-11-19T01:08:06;2.17;;;1.87;;
36391;SDS011;22639;42.690;23.356;2023-11-19T01:10:32;1.37;;;1.27;;
36391;SDS011;22639;42.690;23.356;2023-11-19T01:12:57;3.63;;;1.57;;
36391;SDS011;22639;42.690;23.356;2023-11-19T01:15:23;2.50;;;1.80;;
36391;SDS011;22639;42.690;23.356;2023-11-19T01:17:49;1.77;;;1.23;;
36391;SDS011;22639;42.690;23.356;2023-11-19T01:20:14;1.93;;;1.30;;
36391;SDS011;22639;42.690;23.356;2023-11-19T01:22:40;2.23;;;1.63;;
36391;SDS011;22639;42.690;23.356;2023-11-19T01:25:06;2.37;;;1.70;;
36391;SDS011;22639;42.690;23.356;2023-11-19T01:27:32;1.07;;;0.97;;
36391;SDS011;22639;42.690;23.356;2023-11-19T01:30:02;3.73;;;1.33;;
36391;SDS011;22639;42.690;23.356;2023-11-19T01:32:31;2.03;;;1.70;;
36391;SDS011;22639;42.690;23.356;2023-11-19T01:34:57;3.37;;;2.63;;
36391;SDS011;22639;42.690;23.356;2023-11-19T01:37:23;2.20;;;1.80;;
36391;SDS011;22639;42.690;23.356;2023-11-19T01:39:48;2.20;;;2.00;;
36391;SDS011;22639;42.690;23.356;2023-11-19T01:42:14;1.80;;;1.63;;
36391;SDS011;22639;42.690;23.356;2023-11-19T01:44:40;1.20;;;1.10;;
36391;SDS011;22639;42.690;23.356;2023-11-19T01:47:06;1.57;;;1.47;;
36391;SDS011;22639;42.690;23.356;2023-11-19T01:49:32;2.43;;;1.40;;
36391;SDS011;22639;42.690;23.356;2023-11-19T01:51:58;1.50;;;1.40;;
36391;SDS011;22639;42.690;23.356;2023-11-19T01:54:24;1.70;;;1.27;;
36391;SDS011;22639;42.690;23.356;2023-11-19T01:56:50;1.27;;;1.10;;
36391;SDS011;22639;42.690;23.356;2023-11-19T01:59:18;1.83;;;1.43;;
36391;SDS011;22639;42.690;23.356;2023-11-19T02:01:45;1.20;;;1.00;;
36391;SDS011;22639;42.690;23.356;2023-11-19T02:04:11;2.03;;;0.97;;
36391;SDS011;22639;42.690;23.356;2023-11-19T02:06:37;1.57;;;0.87;;
36391;SDS011;22639;42.690;23.356;2023-11-19T02:09:05;2.90;;;1.27;;
36391;SDS011;22639;42.690;23.356;2023-11-19T02:11:36;2.53;;;1.43;;
36391;SDS011;22639;42.690;23.356;2023-11-19T02:14:02;1.50;;;1.40;;
36391;SDS011;22639;42.690;23.356;2023-11-19T02:16:29;1.10;;;0.90;;
36391;SDS011;22639;42.690;23.356;2023-11-19T02:18:54;3.37;;;2.07;;
36391;SDS011;22639;42.690;23.356;2023-11-19T02:21:20;1.30;;;0.90;;
36391;SDS011;22639;42.690;23.356;2023-11-19T02:23:45;1.83;;;1.73;;
36391;SDS011;22639;42.690;23.356;2023-11-19T02:26:28;2.00;;;1.80;;
36391;SDS011;22639;42.690;23.356;2023-11-19T02:29:04;1.33;;;1.23;;
36391;SDS011;22639;42.690;23.356;2023-11-19T02:31:31;2.07;;;1.43;;
36391;SDS011;22639;42.690;23.356;2023-11-19T02:33:57;2.17;;;1.30;;
36391;SDS011;22639;42.690;23.356;2023-11-19T02:36:22;1.30;;;1.20;;
36391;SDS011;22639;42.690;23.356;2023-11-19T02:38:48;4.97;;;1.20;;
36391;SDS011;22639;42.690;23.356;2023-11-19T02:41:13;1.57;;;1.47;;
36391;SDS011;22639;42.690;23.356;2023-11-19T02:43:39;2.10;;;1.90;;
36391;SDS011;22639;42.690;23.356;2023-11-19T02:46:05;2.00;;;1.47;;
36391;SDS011;22639;42.690;23.356;2023-11-19T02:48:37;1.77;;;1.67;;
36391;SDS011;22639;42.690;23.356;2023-11-19T02:51:02;1.27;;;1.23;;
36391;SDS011;22639;42.690;23.356;2023-11-19T02:53:29;1.33;;;1.23;;
36391;SDS011;22639;42.690;23.356;2023-11-19T02:55:57;1.47;;;1.13;;
36391;SDS011;22639;42.690;23.356;2023-11-19T02:58:31;2.00;;;1.27;;
36391;SDS011;22639;42.690;23.356;2023-11-19T03:00:56;3.50;;;1.27;;
36391;SDS011;22639;42.690;23.356;2023-11-19T03:03:25;2.30;;;1.53;;
36391;SDS011;22639;42.690;23.356;2023-11-19T03:06:03;1.63;;;1.17;;
36391;SDS011;22639;42.690;23.356;2023-11-19T03:08:31;0.80;;;0.80;;
36391;SDS011;22639;42.690;23.356;2023-11-19T03:10:57;1.87;;;1.70;;
36391;SDS011;22639;42.690;23.356;2023-11-19T03:13:24;3.60;;;1.83;;
36391;SDS011;22639;42.690;23.356;2023-11-19T03:15:49;0.73;;;0.73;;
36391;SDS011;22639;42.690;23.356;2023-11-19T03:18:15;1.33;;;1.17;;
36391;SDS011;22639;42.690;23.356;2023-11-19T03:20:40;0.93;;;0.87;;
36391;SDS011;22639;42.690;23.356;2023-11-19T03:23:05;1.67;;;1.57;;
36391;SDS011;22639;42.690;23.356;2023-11-19T03:25:31;1.63;;;1.37;;
36391;SDS011;22639;42.690;23.356;2023-11-19T03:28:01;1.50;;;1.40;;
36391;SDS011;22639;42.690;23.356;2023-11-19T03:30:28;1.67;;;1.57;;
36391;SDS011;22639;42.690;23.356;2023-11-19T03:32:54;1.77;;;1.53;;
36391;SDS011;22639;42.690;23.356;2023-11-19T03:35:20;1.60;;;1.23;;
36391;SDS011;22639;42.690;23.356;2023-11-19T03:37:46;1.70;;;1.50;;
36391;SDS011;22639;42.690;23.356;2023-11-19T03:40:11;2.13;;;1.60;;
36391;SDS011;22639;42.690;23.356;2023-11-19T03:42:37;1.50;;;1.40;;
36391;SDS011;22639;42.690;23.356;2023-11-19T03:45:05;1.63;;;1.33;;
36391;SDS011;22639;42.690;23.356;2023-11-19T03:47:33;1.70;;;0.93;;
36391;SDS011;22639;42.690;23.356;2023-11-19T03:49:59;1.37;;;0.97;;
36391;SDS011;22639;42.690;23.356;2023-11-19T03:52:25;2.10;;;1.07;;
36391;SDS011;22639;42.690;23.356;2023-11-19T03:54:52;2.30;;;1.50;;
36391;SDS011;22639;42.690;23.356;2023-11-19T03:57:18;2.50;;;1.40;;
36391;SDS011;22639;42.690;23.356;2023-11-19T03:59:43;1.70;;;1.33;;
36391;SDS011;22639;42.690;23.356;2023-11-19T04:02:09;2.83;;;1.53;;
36391;SDS011;22639;42.690;23.356;2023-11-19T04:04:35;1.43;;;1.30;;
36391;SDS011;22639;42.690;23.356;2023-11-19T04:07:01;1.03;;;0.93;;
36391;SDS011;22639;42.690;23.356;2023-11-19T04:09:28;1.20;;;1.10;;
36391;SDS011;22639;42.690;23.356;2023-11-19T04:11:54;1.30;;;1.20;;
36391;SDS011;22639;42.690;23.356;2023-11-19T04:14:19;2.93;;;2.30;;
36391;SDS011;22639;42.690;23.356;2023-11-19T04:16:44;2.13;;;0.70;;
36391;SDS011;22639;42.690;23.356;2023-11-19T04:19:10;0.70;;;0.70;;
36391;SDS011;22639;42.690;23.356;2023-11-19T04:21:42;1.97;;;1.13;;
36391;SDS011;22639;42.690;23.356;2023-11-19T04:24:09;2.00;;;1.30;;
36391;SDS011;22639;42.690;23.356;2023-11-19T04:26:44;1.27;;;1.17;;
36391;SDS011;22639;42.690;23.356;2023-11-19T04:29:14;1.50;;;1.40;;
36391;SDS011;22639;42.690;23.356;2023-11-19T04:31:42;1.63;;;1.47;;
36391;SDS011;22639;42.690;23.356;2023-11-19T04:34:09;2.70;;;2.00;;
36391;SDS011;22639;42.690;23.356;2023-11-19T04:36:34;2.00;;;1.90;;
36391;SDS011;22639;42.690;23.356;2023-11-19T04:39:00;1.30;;;1.00;;
36391;SDS011;22639;42.690;23.356;2023-11-19T04:41:26;0.63;;;0.63;;
36391;SDS011;22639;42.690;23.356;2023-11-19T04:43:55;2.03;;;1.50;;
36391;SDS011;22639;42.690;23.356;2023-11-19T04:46:21;2.07;;;1.90;;
36391;SDS011;22639;42.690;23.356;2023-11-19T04:48:48;1.50;;;1.30;;
36391;SDS011;22639;42.690;23.356;2023-11-19T04:51:17;1.97;;;1.67;;
36391;SDS011;22639;42.690;23.356;2023-11-19T04:53:42;2.33;;;1.97;;
36391;SDS011;22639;42.690;23.356;2023-11-19T04:56:08;1.70;;;1.40;;
36391;SDS011;22639;42.690;23.356;2023-11-19T04:58:34;1.80;;;1.53;;
36391;SDS011;22639;42.690;23.356;2023-11-19T05:01:02;2.60;;;1.70;;
36391;SDS011;22639;42.690;23.356;2023-11-19T05:03:30;1.47;;;1.37;;
36391;SDS011;22639;42.690;23.356;2023-11-19T05:05:57;1.17;;;0.90;;
36391;SDS011;22639;42.690;23.356;2023-11-19T05:08:22;1.93;;;1.47;;
36391;SDS011;22639;42.690;23.356;2023-11-19T05:10:48;1.50;;;1.40;;
36391;SDS011;22639;42.690;23.356;2023-11-19T05:13:14;1.63;;;1.50;;
36391;SDS011;22639;42.690;23.356;2023-11-19T05:15:40;1.60;;;0.93;;
36391;SDS011;22639;42.690;23.356;2023-11-19T05:18:05;2.23;;;1.40;;
36391;SDS011;22639;42.690;23.356;2023-11-19T05:20:31;2.23;;;1.50;;
36391;SDS011;22639;42.690;23.356;2023-11-19T05:22:57;1.00;;;0.87;;
36391;SDS011;22639;42.690;23.356;2023-11-19T05:25:25;2.07;;;1.20;;
36391;SDS011;22639;42.690;23.356;2023-11-19T05:27:51;1.93;;;1.00;;
36391;SDS011;22639;42.690;23.356;2023-11-19T05:30:17;1.47;;;1.37;;
36391;SDS011;22639;42.690;23.356;2023-11-19T05:32:43;1.57;;;1.47;;
36391;SDS011;22639;42.690;23.356;2023-11-19T05:35:08;0.70;;;0.60;;
36391;SDS011;22639;42.690;23.356;2023-11-19T05:37:34;1.97;;;1.73;;
36391;SDS011;22639;42.690;23.356;2023-11-19T05:40:00;1.10;;;1.00;;
36391;SDS011;22639;42.690;23.356;2023-11-19T05:42:28;2.70;;;1.67;;
36391;SDS011;22639;42.690;23.356;2023-11-19T05:44:53;1.20;;;1.13;;
36391;SDS011;22639;42.690;23.356;2023-11-19T05:47:19;2.73;;;1.70;;
36391;SDS011;22639;42.690;23.356;2023-11-19T05:49:44;2.67;;;1.83;;
36391;SDS011;22639;42.690;23.356;2023-11-19T05:52:09;1.47;;;1.13;;
36391;SDS011;22639;42.690;23.356;2023-11-19T05:54:37;1.67;;;1.27;;
36391;SDS011;22639;42.690;23.356;2023-11-19T05:57:06;1.83;;;1.57;;
36391;SDS011;22639;42.690;23.356;2023-11-19T05:59:34;1.67;;;1.57;;
36391;SDS011;22639;42.690;23.356;2023-11-19T06:02:01;2.30;;;2.10;;
36391;SDS011;22639;42.690;23.356;2023-11-19T06:04:27;2.13;;;1.80;;
36391;SDS011;22639;42.690;23.356;2023-11-19T06:06:53;1.33;;;1.23;;
36391;SDS011;22639;42.690;23.356;2023-11-19T06:09:19;1.83;;;1.73;;
36391;SDS011;22639;42.690;23.356;2023-11-19T06:11:46;0.87;;;0.83;;
36391;SDS011;22639;42.690;23.356;2023-11-19T06:14:12;2.20;;;1.43;;
36391;SDS011;22639;42.690;23.356;2023-11-19T06:16:37;1.87;;;1.73;;
36391;SDS011;22639;42.690;23.356;2023-11-19T06:19:05;1.67;;;1.33;;
36391;SDS011;22639;42.690;23.356;2023-11-19T06:21:30;3.83;;;1.83;;
36391;SDS011;22639;42.690;23.356;2023-11-19T06:23:56;4.13;;;1.90;;
36391;SDS011;22639;42.690;23.356;2023-11-19T06:26:21;4.90;;;2.50;;
36391;SDS011;22639;42.690;23.356;2023-11-19T06:28:47;1.80;;;1.40;;
36391;SDS011;22639;42.690;23.356;2023-11-19T06:31:12;0.77;;;0.77;;
36391;SDS011;22639;42.690;23.356;2023-11-19T06:33:41;2.33;;;2.10;;
36391;SDS011;22639;42.690;23.356;2023-11-19T06:36:08;8.40;;;2.57;;
36391;SDS011;22639;42.690;23.356;2023-11-19T06:38:34;2.57;;;1.47;;
36391;SDS011;22639;42.690;23.356;2023-11-19T06:41:00;2.27;;;1.50;;
36391;SDS011;22639;42.690;23.356;2023-11-19T06:43:26;1.50;;;1.40;;
36391;SDS011;22639;42.690;23.356;2023-11-19T06:45:51;2.30;;;2.07;;
36391;SDS011;22639;42.690;23.356;2023-11-19T06:48:18;3.57;;;2.17;;
36391;SDS011;22639;42.690;23.356;2023-11-19T06:50:43;2.17;;;1.80;;
36391;SDS011;22639;42.690;23.356;2023-11-19T06:53:09;3.20;;;1.43;;
36391;SDS011;22639;42.690;23.356;2023-11-19T06:55:35;2.50;;;1.77;;
36391;SDS011;22639;42.690;23.356;2023-11-19T06:58:01;1.73;;;1.60;;
36391;SDS011;22639;42.690;23.356;2023-11-19T07:00:27;3.17;;;2.87;;
36391;SDS011;22639;42.690;23.356;2023-11-19T07:02:53;3.17;;;2.40;;
36391;SDS011;22639;42.690;23.356;2023-11-19T07:05:18;2.97;;;2.07;;
36391;SDS011;22639;42.690;23.356;2023-11-19T07:07:44;2.37;;;2.03;;
36391;SDS011;22639;42.690;23.356;2023-11-19T07:10:11;12.03;;;2.10;;
36391;SDS011;22639;42.690;23.356;2023-11-19T07:12:37;2.23;;;2.00;;
36391;SDS011;22639;42.690;23.356;2023-11-19T07:15:03;3.03;;;2.30;;
36391;SDS011;22639;42.690;23.356;2023-11-19T07:17:30;2.13;;;1.53;;
36391;SDS011;22639;42.690;23.356;2023-11-19T07:19:55;2.37;;;1.60;;
36391;SDS011;22639;42.690;23.356;2023-11-19T07:22:24;3.93;;;1.70;;
36391;SDS011;22639;42.690;23.356;2023-11-19T07:24:49;2.93;;;1.87;;
36391;SDS011;22639;42.690;23.356;2023-11-19T07:27:16;3.10;;;2.70;;
36391;SDS011;22639;42.690;23.356;2023-11-19T07:29:43;2.27;;;2.07;;
36391;SDS011;22639;42.690;23.356;2023-11-19T07:32:09;2.23;;;1.40;;
36391;SDS011;22639;42.690;23.356;2023-11-19T07:34:35;1.97;;;1.80;;
36391;SDS011;22639;42.690;23.356;2023-11-19T07:37:01;2.37;;;1.90;;
36391;SDS011;22639;42.690;23.356;2023-11-19T07:39:28;2.03;;;1.87;;
36391;SDS011;22639;42.690;23.356;2023-11-19T07:41:54;2.00;;;1.60;;
36391;SDS011;22639;42.690;23.356;2023-11-19T07:44:20;1.43;;;1.33;;
36391;SDS011;22639;42.690;23.356;2023-11-19T07:46:46;1.93;;;1.57;;
36391;SDS011;22639;42.690;23.356;2023-11-19T07:49:13;1.60;;;1.23;;
36391;SDS011;22639;42.690;23.356;2023-11-19T07:51:39;1.80;;;1.27;;
36391;SDS011;22639;42.690;23.356;2023-11-19T07:54:04;2.43;;;1.20;;
36391;SDS011;22639;42.690;23.356;2023-11-19T07:56:30;1.87;;;1.57;;
36391;SDS011;22639;42.690;23.356;2023-11-19T07:58:59;4.47;;;2.70;;
36391;SDS011;22639;42.690;23.356;2023-11-19T08:01:24;2.73;;;2.30;;
36391;SDS011;22639;42.690;23.356;2023-11-19T08:03:50;2.07;;;1.60;;
36391;SDS011;22639;42.690;23.356;2023-11-19T08:06:15;2.00;;;1.60;;
36391;SDS011;22639;42.690;23.356;2023-11-19T08:08:41;2.83;;;1.90;;
36391;SDS011;22639;42.690;23.356;2023-11-19T08:11:06;2.73;;;1.93;;
36391;SDS011;22639;42.690;23.356;2023-11-19T08:13:32;3.60;;;2.13;;
36391;SDS011;22639;42.690;23.356;2023-11-19T08:15:57;2.13;;;1.80;;
36391;SDS011;22639;42.690;23.356;2023-11-19T08:18:23;2.43;;;1.40;;
36391;SDS011;22639;42.690;23.356;2023-11-19T08:20:49;4.20;;;2.43;;
36391;SDS011;22639;42.690;23.356;2023-11-19T08:23:18;2.73;;;2.00;;
36391;SDS011;22639;42.690;23.356;2023-11-19T08:25:44;4.57;;;1.63;;
36391;SDS011;22639;42.690;23.356;2023-11-19T08:28:09;3.73;;;1.60;;
36391;SDS011;22639;42.690;23.356;2023-11-19T08:30:35;3.50;;;2.33;;
36391;SDS011;22639;42.690;23.356;2023-11-19T08:33:00;3.43;;;2.80;;
36391;SDS011;22639;42.690;23.356;2023-11-19T08:35:28;2.83;;;2.23;;
36391;SDS011;22639;42.690;23.356;2023-11-19T08:37:54;2.33;;;1.90;;
36391;SDS011;22639;42.690;23.356;2023-11-19T08:40:19;2.73;;;1.90;;
36391;SDS011;22639;42.690;23.356;2023-11-19T08:42:45;3.33;;;1.90;;
36391;SDS011;22639;42.690;23.356;2023-11-19T08:45:10;2.37;;;2.10;;
36391;SDS011;22639;42.690;23.356;2023-11-19T08:47:36;1.63;;;1.53;;
36391;SDS011;22639;42.690;23.356;2023-11-19T08:50:02;2.83;;;2.10;;
36391;SDS011;22639;42.690;23.356;2023-11-19T08:52:29;3.63;;;2.30;;
36391;SDS011;22639;42.690;23.356;2023-11-19T08:54:55;3.00;;;2.33;;
36391;SDS011;22639;42.690;23.356;2023-11-19T08:57:21;1.97;;;1.77;;
36391;SDS011;22639;42.690;23.356;2023-11-19T08:59:46;3.17;;;1.77;;
36391;SDS011;22639;42.690;23.356;2023-11-19T09:02:12;2.30;;;1.83;;
36391;SDS011;22639;42.690;23.356;2023-11-19T09:04:37;3.33;;;2.10;;
36391;SDS011;22639;42.690;23.356;2023-11-19T09:07:03;2.50;;;1.77;;
36391;SDS011;22639;42.690;23.356;2023-11-19T09:09:29;4.80;;;2.70;;
36391;SDS011;22639;42.690;23.356;2023-11-19T09:11:55;3.30;;;2.10;;
36391;SDS011;22639;42.690;23.356;2023-11-19T09:14:20;3.17;;;2.30;;
36391;SDS011;22639;42.690;23.356;2023-11-19T09:16:50;1.93;;;1.70;;
36391;SDS011;22639;42.690;23.356;2023-11-19T09:19:16;2.80;;;1.97;;
36391;SDS011;22639;42.690;23.356;2023-11-19T09:21:42;2.53;;;2.20;;
36391;SDS011;22639;42.690;23.356;2023-11-19T09:24:08;3.47;;;2.10;;
36391;SDS011;22639;42.690;23.356;2023-11-19T09:26:34;1.37;;;0.97;;
36391;SDS011;22639;42.690;23.356;2023-11-19T09:29:01;2.30;;;2.10;;
36391;SDS011;22639;42.690;23.356;2023-11-19T09:31:26;2.87;;;2.20;;
36391;SDS011;22639;42.690;23.356;2023-11-19T09:33:52;4.90;;;3.73;;
36391;SDS011;22639;42.690;23.356;2023-11-19T09:36:17;3.23;;;2.43;;
36391;SDS011;22639;42.690;23.356;2023-11-19T09:38:44;2.03;;;1.60;;
36391;SDS011;22639;42.690;23.356;2023-11-19T09:41:09;2.60;;;2.07;;
36391;SDS011;22639;42.690;23.356;2023-11-19T09:43:40;4.90;;;2.13;;
36391;SDS011;22639;42.690;23.356;2023-11-19T09:46:07;2.27;;;2.07;;
36391;SDS011;22639;42.690;23.356;2023-11-19T09:48:37;4.90;;;1.40;;
36391;SDS011;22639;42.690;23.356;2023-11-19T09:51:12;0.80;;;0.80;;
36391;SDS011;22639;42.690;23.356;2023-11-19T09:53:37;2.80;;;1.63;;
36391;SDS011;22639;42.690;23.356;2023-11-19T09:56:03;3.10;;;1.93;;
36391;SDS011;22639;42.690;23.356;2023-11-19T09:58:32;1.30;;;1.20;;
36391;SDS011;22639;42.690;23.356;2023-11-19T10:00:58;2.47;;;1.90;;
36391;SDS011;22639;42.690;23.356;2023-11-19T10:03:24;3.27;;;2.70;;
36391;SDS011;22639;42.690;23.356;2023-11-19T10:05:52;3.83;;;2.23;;
36391;SDS011;22639;42.690;23.356;2023-11-19T10:08:20;2.13;;;1.93;;
36391;SDS011;22639;42.690;23.356;2023-11-19T10:10:47;2.07;;;1.63;;
36391;SDS011;22639;42.690;23.356;2023-11-19T10:13:12;2.83;;;2.07;;
36391;SDS011;22639;42.690;23.356;2023-11-19T10:15:40;4.07;;;2.37;;
36391;SDS011;22639;42.690;23.356;2023-11-19T10:18:05;3.60;;;2.07;;
36391;SDS011;22639;42.690;23.356;2023-11-19T10:20:37;2.30;;;1.90;;
36391;SDS011;22639;42.690;23.356;2023-11-19T10:23:05;2.37;;;2.17;;
36391;SDS011;22639;42.690;23.356;2023-11-19T10:25:30;2.23;;;1.40;;
36391;SDS011;22639;42.690;23.356;2023-11-19T10:27:59;2.47;;;2.27;;
36391;SDS011;22639;42.690;23.356;2023-11-19T10:30:26;3.97;;;2.73;;
36391;SDS011;22639;42.690;23.356;2023-11-19T10:33:06;2.60;;;1.50;;
36391;SDS011;22639;42.690;23.356;2023-11-19T10:38:24;2.83;;;2.13;;
36391;SDS011;22639;42.690;23.356;2023-11-19T10:40:51;2.30;;;1.13;;
36391;SDS011;22639;42.690;23.356;2023-11-19T10:43:17;2.37;;;2.13;;
36391;SDS011;22639;42.690;23.356;2023-11-19T10:45:43;2.00;;;1.80;;
36391;SDS011;22639;42.690;23.356;2023-11-19T10:48:09;4.40;;;2.60;;
36391;SDS011;22639;42.690;23.356;2023-11-19T10:50:38;2.23;;;1.90;;
36391;SDS011;22639;42.690;23.356;2023-11-19T10:53:05;2.73;;;2.10;;
36391;SDS011;22639;42.690;23.356;2023-11-19T10:55:34;3.57;;;2.00;;
36391;SDS011;22639;42.690;23.356;2023-11-19T10:58:01;3.33;;;2.77;;
36391;SDS011;22639;42.690;23.356;2023-11-19T11:00:29;3.53;;;2.23;;
36391;SDS011;22639;42.690;23.356;2023-11-19T11:02:59;3.30;;;2.43;;
36391;SDS011;22639;42.690;23.356;2023-11-19T11:05:26;2.90;;;1.97;;
36391;SDS011;22639;42.690;23.356;2023-11-19T11:07:54;1.83;;;1.30;;
36391;SDS011;22639;42.690;23.356;2023-11-19T11:10:23;2.10;;;1.87;;
36391;SDS011;22639;42.690;23.356;2023-11-19T11:12:51;2.60;;;2.00;;
36391;SDS011;22639;42.690;23.356;2023-11-19T11:15:24;3.53;;;2.50;;
36391;SDS011;22639;42.690;23.356;2023-11-19T11:17:54;3.47;;;3.07;;
36391;SDS011;22639;42.690;23.356;2023-11-19T11:20:32;3.90;;;2.67;;
36391;SDS011;22639;42.690;23.356;2023-11-19T11:37:27;2.10;;;1.47;;
36391;SDS011;22639;42.690;23.356;2023-11-19T11:40:02;2.03;;;1.67;;
36391;SDS011;22639;42.690;23.356;2023-11-19T11:42:35;2.40;;;2.03;;
36391;SDS011;22639;42.690;23.356;2023-11-19T11:45:11;1.63;;;1.43;;
36391;SDS011;22639;42.690;23.356;2023-11-19T11:50:10;1.83;;;1.47;;
36391;SDS011;22639;42.690;23.356;2023-11-19T11:55:24;5.33;;;3.27;;
36391;SDS011;22639;42.690;23.356;2023-11-19T11:58:03;3.80;;;2.47;;
36391;SDS011;22639;42.690;23.356;2023-11-19T12:00:30;3.97;;;2.77;;
36391;SDS011;22639;42.690;23.356;2023-11-19T12:03:00;2.63;;;2.03;;
36391;SDS011;22639;42.690;23.356;2023-11-19T12:05:25;2.33;;;1.80;;
36391;SDS011;22639;42.690;23.356;2023-11-19T12:07:55;2.20;;;1.77;;
36391;SDS011;22639;42.690;23.356;2023-11-19T12:10:24;2.20;;;1.80;;
36391;SDS011;22639;42.690;23.356;2023-11-19T12:12:52;2.83;;;2.00;;
36391;SDS011;22639;42.690;23.356;2023-11-19T12:15:18;2.63;;;1.70;;
36391;SDS011;22639;42.690;23.356;2023-11-19T12:17:48;3.80;;;2.33;;
36391;SDS011;22639;42.690;23.356;2023-11-19T12:20:15;5.33;;;3.20;;
36391;SDS011;22639;42.690;23.356;2023-11-19T12:22:42;3.20;;;2.23;;
36391;SDS011;22639;42.690;23.356;2023-11-19T12:25:10;3.83;;;2.77;;
36391;SDS011;22639;42.690;23.356;2023-11-19T12:27:39;4.43;;;2.87;;
36391;SDS011;22639;42.690;23.356;2023-11-19T12:30:05;3.90;;;2.93;;
36391;SDS011;22639;42.690;23.356;2023-11-19T12:35:08;3.90;;;3.13;;
36391;SDS011;22639;42.690;23.356;2023-11-19T12:37:45;4.03;;;2.37;;
36391;SDS011;22639;42.690;23.356;2023-11-19T12:42:42;2.80;;;2.00;;
36391;SDS011;22639;42.690;23.356;2023-11-19T12:45:08;3.07;;;2.60;;
36391;SDS011;22639;42.690;23.356;2023-11-19T12:47:35;2.57;;;1.97;;
36391;SDS011;22639;42.690;23.356;2023-11-19T12:50:02;3.73;;;2.33;;
36391;SDS011;22639;42.690;23.356;2023-11-19T12:52:28;1.97;;;1.77;;
36391;SDS011;22639;42.690;23.356;2023-11-19T12:54:53;2.30;;;1.90;;
36391;SDS011;22639;42.690;23.356;2023-11-19T12:57:19;4.60;;;2.50;;
36391;SDS011;22639;42.690;23.356;2023-11-19T12:59:54;3.93;;;2.90;;
36391;SDS011;22639;42.690;23.356;2023-11-19T13:02:23;2.37;;;2.00;;
36391;SDS011;22639;42.690;23.356;2023-11-19T13:05:25;3.33;;;2.50;;
36391;SDS011;22639;42.690;23.356;2023-11-19T13:08:00;2.50;;;2.20;;
36391;SDS011;22639;42.690;23.356;2023-11-19T13:10:32;3.07;;;2.23;;
36391;SDS011;22639;42.690;23.356;2023-11-19T13:13:03;4.43;;;2.63;;
36391;SDS011;22639;42.690;23.356;2023-11-19T13:15:31;3.07;;;2.23;;
36391;SDS011;22639;42.690;23.356;2023-11-19T13:17:58;3.50;;;2.50;;
36391;SDS011;22639;42.690;23.356;2023-11-19T13:20:27;6.03;;;4.70;;
36391;SDS011;22639;42.690;23.356;2023-11-19T13:22:56;4.43;;;2.97;;
36391;SDS011;22639;42.690;23.356;2023-11-19T13:25:22;3.90;;;2.37;;
36391;SDS011;22639;42.690;23.356;2023-11-19T13:27:48;7.07;;;4.27;;
36391;SDS011;22639;42.690;23.356;2023-11-19T13:30:14;10.37;;;6.60;;
36391;SDS011;22639;42.690;23.356;2023-11-19T13:32:39;3.53;;;3.17;;
36391;SDS011;22639;42.690;23.356;2023-11-19T13:35:05;4.73;;;3.63;;
36391;SDS011;22639;42.690;23.356;2023-11-19T13:37:33;3.53;;;3.17;;
36391;SDS011;22639;42.690;23.356;2023-11-19T13:39:59;4.60;;;3.33;;
36391;SDS011;22639;42.690;23.356;2023-11-19T13:42:25;5.53;;;3.47;;
36391;SDS011;22639;42.690;23.356;2023-11-19T13:44:50;4.10;;;2.63;;
36391;SDS011;22639;42.690;23.356;2023-11-19T13:47:16;4.43;;;3.47;;
36391;SDS011;22639;42.690;23.356;2023-11-19T13:49:41;6.37;;;2.70;;
36391;SDS011;22639;42.690;23.356;2023-11-19T13:52:06;4.47;;;2.70;;
36391;SDS011;22639;42.690;23.356;2023-11-19T13:54:32;5.90;;;3.67;;
36391;SDS011;22639;42.690;23.356;2023-11-19T13:56:57;4.43;;;3.77;;
36391;SDS011;22639;42.690;23.356;2023-11-19T13:59:23;2.97;;;2.67;;
36391;SDS011;22639;42.690;23.356;2023-11-19T14:01:49;6.07;;;3.03;;
36391;SDS011;22639;42.690;23.356;2023-11-19T14:04:14;5.40;;;2.63;;
36391;SDS011;22639;42.690;23.356;2023-11-19T14:06:40;3.73;;;2.57;;
36391;SDS011;22639;42.690;23.356;2023-11-19T14:09:08;4.90;;;3.17;;
36391;SDS011;22639;42.690;23.356;2023-11-19T14:11:34;3.00;;;2.50;;
36391;SDS011;22639;42.690;23.356;2023-11-19T14:14:00;4.53;;;2.87;;
36391;SDS011;22639;42.690;23.356;2023-11-19T14:16:28;5.07;;;3.80;;
36391;SDS011;22639;42.690;23.356;2023-11-19T14:18:54;3.80;;;3.00;;
36391;SDS011;22639;42.690;23.356;2023-11-19T14:21:20;5.07;;;3.20;;
36391;SDS011;22639;42.690;23.356;2023-11-19T14:23:45;5.00;;;3.23;;
36391;SDS011;22639;42.690;23.356;2023-11-19T14:26:11;4.60;;;2.87;;
36391;SDS011;22639;42.690;23.356;2023-11-19T14:28:37;4.90;;;3.40;;
36391;SDS011;22639;42.690;23.356;2023-11-19T14:31:03;3.53;;;2.60;;
36391;SDS011;22639;42.690;23.356;2023-11-19T14:33:29;3.43;;;2.37;;
36391;SDS011;22639;42.690;23.356;2023-11-19T14:35:55;3.70;;;2.60;;
36391;SDS011;22639;42.690;23.356;2023-11-19T14:38:20;4.27;;;2.80;;
36391;SDS011;22639;42.690;23.356;2023-11-19T14:40:46;3.60;;;2.93;;
36391;SDS011;22639;42.690;23.356;2023-11-19T14:43:13;4.77;;;2.70;;
36391;SDS011;22639;42.690;23.356;2023-11-19T14:45:40;4.67;;;2.93;;
36391;SDS011;22639;42.690;23.356;2023-11-19T14:48:06;2.77;;;2.40;;
36391;SDS011;22639;42.690;23.356;2023-11-19T14:50:31;5.00;;;2.93;;
36391;SDS011;22639;42.690;23.356;2023-11-19T14:52:57;4.70;;;3.80;;
36391;SDS011;22639;42.690;23.356;2023-11-19T14:55:23;3.20;;;2.27;;
36391;SDS011;22639;42.690;23.356;2023-11-19T14:57:48;6.07;;;2.90;;
36391;SDS011;22639;42.690;23.356;2023-11-19T15:00:15;9.80;;;4.27;;